sensor_id;sensor_type;location;lat;lon;timestamp;temperature;humidity
5508;DHT22;2776;51.046;6.772;2023-04-22T00:01:52;9.30;99.90
5508;DHT22;2776;51.046;6.772;2023-04-22T00:04:19;9.20;99.90
5508;DHT22;2776;51.046;6.772;2023-04-22T00:06:47;9.20;99.90
5508;DHT22;2776;51.046;6.772;2023-04-22T00:09:13;9.20;99.90
5508;DHT22;2776;51.046;6.772;2023-04-22T00:11:40;9.20;99.90
5508;DHT22;2776;51.046;6.772;2023-04-22T00:14:07;9.20;99.90
5508;DHT22;2776;51.046;6.772;2023-04-22T00:16:34;9.10;99.90
5508;DHT22;2776;51.046;6.772;2023-04-22T00:19:00;9.20;99.90
5508;DHT22;2776;51.046;6.772;2023-04-22T00:21:27;9.20;99.90
5508;DHT22;2776;51.046;6.772;2023-04-22T00:23:55;9.20;99.90
5508;DHT22;2776;51.046;6.772;2023-04-22T00:26:22;9.20;99.90
5508;DHT22;2776;51.046;6.772;2023-04-22T00:28:49;9.30;99.90
5508;DHT22;2776;51.046;6.772;2023-04-22T00:31:16;9.20;99.90
5508;DHT22;2776;51.046;6.772;2023-04-22T00:33:43;9.20;99.90
5508;DHT22;2776;51.046;6.772;2023-04-22T00:36:10;9.20;99.90
5508;DHT22;2776;51.046;6.772;2023-04-22T00:38:36;9.20;99.90
5508;DHT22;2776;51.046;6.772;2023-04-22T00:41:05;9.30;99.90
5508;DHT22;2776;51.046;6.772;2023-04-22T00:43:32;9.40;99.90
5508;DHT22;2776;51.046;6.772;2023-04-22T00:45:59;9.40;99.90
5508;DHT22;2776;51.046;6.772;2023-04-22T00:48:27;9.40;99.90
5508;DHT22;2776;51.046;6.772;2023-04-22T00:50:55;9.50;99.90
5508;DHT22;2776;51.046;6.772;2023-04-22T00:53:21;9.50;99.90
5508;DHT22;2776;51.046;6.772;2023-04-22T00:55:48;9.60;99.90
5508;DHT22;2776;51.046;6.772;2023-04-22T00:58:17;9.60;99.90
5508;DHT22;2776;51.046;6.772;2023-04-22T01:00:44;9.60;99.90
5508;DHT22;2776;51.046;6.772;2023-04-22T01:03:11;9.60;99.90
5508;DHT22;2776;51.046;6.772;2023-04-22T01:05:38;9.60;99.90
5508;DHT22;2776;51.046;6.772;2023-04-22T01:08:05;9.60;99.90
5508;DHT22;2776;51.046;6.772;2023-04-22T01:10:32;9.60;99.90
5508;DHT22;2776;51.046;6.772;2023-04-22T01:12:59;9.50;99.90
5508;DHT22;2776;51.046;6.772;2023-04-22T01:15:27;9.50;99.90
5508;DHT22;2776;51.046;6.772;2023-04-22T01:17:55;9.50;99.90
5508;DHT22;2776;51.046;6.772;2023-04-22T01:20:22;9.60;99.90
5508;DHT22;2776;51.046;6.772;2023-04-22T01:22:49;9.60;99.90
5508;DHT22;2776;51.046;6.772;2023-04-22T01:25:20;9.60;99.90
5508;DHT22;2776;51.046;6.772;2023-04-22T01:27:47;9.60;99.90
5508;DHT22;2776;51.046;6.772;2023-04-22T01:30:14;9.70;99.90
5508;DHT22;2776;51.046;6.772;2023-04-22T01:32:41;9.70;99.90
5508;DHT22;2776;51.046;6.772;2023-04-22T01:35:09;9.70;99.90
5508;DHT22;2776;51.046;6.772;2023-04-22T01:37:36;9.70;99.90
5508;DHT22;2776;51.046;6.772;2023-04-22T01:40:03;9.70;99.90
5508;DHT22;2776;51.046;6.772;2023-04-22T01:42:33;9.60;99.90
5508;DHT22;2776;51.046;6.772;2023-04-22T01:45:00;9.70;99.90
5508;DHT22;2776;51.046;6.772;2023-04-22T01:47:26;9.70;99.90
5508;DHT22;2776;51.046;6.772;2023-04-22T01:49:53;9.80;99.90
5508;DHT22;2776;51.046;6.772;2023-04-22T01:52:20;9.70;99.90
5508;DHT22;2776;51.046;6.772;2023-04-22T01:54:47;9.70;99.90
5508;DHT22;2776;51.046;6.772;2023-04-22T01:57:14;9.70;99.90
5508;DHT22;2776;51.046;6.772;2023-04-22T01:59:42;9.70;99.90
5508;DHT22;2776;51.046;6.772;2023-04-22T02:02:09;9.80;99.90
5508;DHT22;2776;51.046;6.772;2023-04-22T02:04:36;9.70;99.90
5508;DHT22;2776;51.046;6.772;2023-04-22T02:07:02;9.80;99.90
5508;DHT22;2776;51.046;6.772;2023-04-22T02:09:29;9.70;99.90
5508;DHT22;2776;51.046;6.772;2023-04-22T02:11:56;9.80;99.90
5508;DHT22;2776;51.046;6.772;2023-04-22T02:14:22;9.80;99.90
5508;DHT22;2776;51.046;6.772;2023-04-22T02:16:52;9.90;99.90
5508;DHT22;2776;51.046;6.772;2023-04-22T02:19:18;9.90;99.90
5508;DHT22;2776;51.046;6.772;2023-04-22T02:21:45;9.90;99.90
5508;DHT22;2776;51.046;6.772;2023-04-22T02:24:12;9.90;99.90
5508;DHT22;2776;51.046;6.772;2023-04-22T02:26:39;9.90;99.90
5508;DHT22;2776;51.046;6.772;2023-04-22T02:29:06;10.00;99.90
5508;DHT22;2776;51.046;6.772;2023-04-22T02:31:32;10.00;99.90
5508;DHT22;2776;51.046;6.772;2023-04-22T02:34:00;9.90;99.90
5508;DHT22;2776;51.046;6.772;2023-04-22T02:36:27;9.90;99.90
5508;DHT22;2776;51.046;6.772;2023-04-22T02:38:54;9.90;99.90
5508;DHT22;2776;51.046;6.772;2023-04-22T02:41:21;9.80;99.90
5508;DHT22;2776;51.046;6.772;2023-04-22T02:43:47;9.80;99.90
5508;DHT22;2776;51.046;6.772;2023-04-22T02:46:14;9.80;99.90
5508;DHT22;2776;51.046;6.772;2023-04-22T02:48:41;9.80;99.90
5508;DHT22;2776;51.046;6.772;2023-04-22T02:51:09;9.70;99.90
5508;DHT22;2776;51.046;6.772;2023-04-22T02:53:36;9.70;99.90
5508;DHT22;2776;51.046;6.772;2023-04-22T02:56:03;9.80;99.90
5508;DHT22;2776;51.046;6.772;2023-04-22T02:58:30;9.70;99.90
5508;DHT22;2776;51.046;6.772;2023-04-22T03:00:57;9.80;99.90
5508;DHT22;2776;51.046;6.772;2023-04-22T03:03:24;9.90;99.90
5508;DHT22;2776;51.046;6.772;2023-04-22T03:05:51;9.90;99.90
5508;DHT22;2776;51.046;6.772;2023-04-22T03:08:19;10.00;99.90
5508;DHT22;2776;51.046;6.772;2023-04-22T03:10:46;10.00;99.90
5508;DHT22;2776;51.046;6.772;2023-04-22T03:13:12;10.00;99.90
5508;DHT22;2776;51.046;6.772;2023-04-22T03:15:39;10.10;99.90
5508;DHT22;2776;51.046;6.772;2023-04-22T03:18:06;10.10;99.90
5508;DHT22;2776;51.046;6.772;2023-04-22T03:20:33;10.10;99.90
5508;DHT22;2776;51.046;6.772;2023-04-22T03:23:00;10.10;99.90
5508;DHT22;2776;51.046;6.772;2023-04-22T03:25:28;10.10;99.90
5508;DHT22;2776;51.046;6.772;2023-04-22T03:27:55;10.20;99.90
5508;DHT22;2776;51.046;6.772;2023-04-22T03:30:22;10.20;99.90
5508;DHT22;2776;51.046;6.772;2023-04-22T03:32:48;10.20;99.90
5508;DHT22;2776;51.046;6.772;2023-04-22T03:35:16;10.20;99.90
5508;DHT22;2776;51.046;6.772;2023-04-22T03:37:43;10.20;99.90
5508;DHT22;2776;51.046;6.772;2023-04-22T03:40:10;10.30;99.90
5508;DHT22;2776;51.046;6.772;2023-04-22T03:42:39;10.30;99.90
5508;DHT22;2776;51.046;6.772;2023-04-22T03:45:06;10.30;99.90
5508;DHT22;2776;51.046;6.772;2023-04-22T03:47:33;10.30;99.90
5508;DHT22;2776;51.046;6.772;2023-04-22T03:50:00;10.30;99.90
5508;DHT22;2776;51.046;6.772;2023-04-22T03:52:26;10.30;99.90
5508;DHT22;2776;51.046;6.772;2023-04-22T03:54:53;10.30;99.90
5508;DHT22;2776;51.046;6.772;2023-04-22T03:57:20;10.30;99.90
5508;DHT22;2776;51.046;6.772;2023-04-22T03:59:48;10.30;99.90
5508;DHT22;2776;51.046;6.772;2023-04-22T04:02:14;10.30;99.90
5508;DHT22;2776;51.046;6.772;2023-04-22T04:04:41;10.30;99.90
5508;DHT22;2776;51.046;6.772;2023-04-22T04:07:08;10.30;99.90
5508;DHT22;2776;51.046;6.772;2023-04-22T04:09:35;10.30;99.90
5508;DHT22;2776;51.046;6.772;2023-04-22T04:12:01;10.30;99.90
5508;DHT22;2776;51.046;6.772;2023-04-22T04:14:28;10.30;99.90
5508;DHT22;2776;51.046;6.772;2023-04-22T04:16:56;10.40;99.90
5508;DHT22;2776;51.046;6.772;2023-04-22T04:19:23;10.40;99.90
5508;DHT22;2776;51.046;6.772;2023-04-22T04:21:49;10.40;99.90
5508;DHT22;2776;51.046;6.772;2023-04-22T04:24:16;10.40;99.90
5508;DHT22;2776;51.046;6.772;2023-04-22T04:26:43;10.40;99.90
5508;DHT22;2776;51.046;6.772;2023-04-22T04:29:10;10.40;99.90
5508;DHT22;2776;51.046;6.772;2023-04-22T04:31:38;10.40;99.90
5508;DHT22;2776;51.046;6.772;2023-04-22T04:34:06;10.40;99.90
5508;DHT22;2776;51.046;6.772;2023-04-22T04:36:32;10.50;99.90
5508;DHT22;2776;51.046;6.772;2023-04-22T04:38:59;10.50;99.90
5508;DHT22;2776;51.046;6.772;2023-04-22T04:41:26;10.50;99.90
5508;DHT22;2776;51.046;6.772;2023-04-22T04:43:54;10.50;99.90
5508;DHT22;2776;51.046;6.772;2023-04-22T04:46:20;10.50;99.90
5508;DHT22;2776;51.046;6.772;2023-04-22T04:48:47;10.50;99.90
5508;DHT22;2776;51.046;6.772;2023-04-22T04:51:17;10.50;99.90
5508;DHT22;2776;51.046;6.772;2023-04-22T04:53:44;10.50;99.90
5508;DHT22;2776;51.046;6.772;2023-04-22T04:56:11;10.60;99.90
5508;DHT22;2776;51.046;6.772;2023-04-22T04:58:38;10.60;99.90
5508;DHT22;2776;51.046;6.772;2023-04-22T05:01:05;10.60;99.90
5508;DHT22;2776;51.046;6.772;2023-04-22T05:03:31;10.70;99.90
5508;DHT22;2776;51.046;6.772;2023-04-22T05:05:58;10.60;99.90
5508;DHT22;2776;51.046;6.772;2023-04-22T05:08:26;10.70;99.90
5508;DHT22;2776;51.046;6.772;2023-04-22T05:10:53;10.80;99.90
5508;DHT22;2776;51.046;6.772;2023-04-22T05:13:20;10.90;99.90
5508;DHT22;2776;51.046;6.772;2023-04-22T05:15:47;11.00;99.90
5508;DHT22;2776;51.046;6.772;2023-04-22T05:18:14;11.10;99.90
5508;DHT22;2776;51.046;6.772;2023-04-22T05:20:40;11.10;99.90
5508;DHT22;2776;51.046;6.772;2023-04-22T05:23:07;11.20;99.90
5508;DHT22;2776;51.046;6.772;2023-04-22T05:25:35;11.40;99.90
5508;DHT22;2776;51.046;6.772;2023-04-22T05:28:02;11.50;99.90
5508;DHT22;2776;51.046;6.772;2023-04-22T05:30:29;11.60;99.90
5508;DHT22;2776;51.046;6.772;2023-04-22T05:32:55;11.90;99.90
5508;DHT22;2776;51.046;6.772;2023-04-22T05:35:22;12.10;99.90
5508;DHT22;2776;51.046;6.772;2023-04-22T05:37:49;12.30;99.90
5508;DHT22;2776;51.046;6.772;2023-04-22T05:40:16;12.60;99.90
5508;DHT22;2776;51.046;6.772;2023-04-22T05:42:44;13.10;99.90
5508;DHT22;2776;51.046;6.772;2023-04-22T05:45:11;13.80;99.90
5508;DHT22;2776;51.046;6.772;2023-04-22T05:47:37;14.40;99.90
5508;DHT22;2776;51.046;6.772;2023-04-22T05:50:05;14.60;99.90
5508;DHT22;2776;51.046;6.772;2023-04-22T05:52:32;14.60;99.90
5508;DHT22;2776;51.046;6.772;2023-04-22T05:54:59;14.60;99.90
5508;DHT22;2776;51.046;6.772;2023-04-22T05:57:26;14.50;99.90
5508;DHT22;2776;51.046;6.772;2023-04-22T05:59:54;14.30;99.90
5508;DHT22;2776;51.046;6.772;2023-04-22T06:02:20;14.20;99.90
5508;DHT22;2776;51.046;6.772;2023-04-22T06:04:47;14.10;99.90
5508;DHT22;2776;51.046;6.772;2023-04-22T06:07:14;14.10;99.90
5508;DHT22;2776;51.046;6.772;2023-04-22T06:09:41;14.10;99.90
5508;DHT22;2776;51.046;6.772;2023-04-22T06:12:07;14.40;99.90
5508;DHT22;2776;51.046;6.772;2023-04-22T06:14:34;14.50;99.90
5508;DHT22;2776;51.046;6.772;2023-04-22T06:17:02;14.80;99.90
5508;DHT22;2776;51.046;6.772;2023-04-22T06:19:29;15.20;99.90
5508;DHT22;2776;51.046;6.772;2023-04-22T06:21:56;15.40;99.90
5508;DHT22;2776;51.046;6.772;2023-04-22T06:24:22;15.70;99.90
5508;DHT22;2776;51.046;6.772;2023-04-22T06:26:49;16.40;99.90
5508;DHT22;2776;51.046;6.772;2023-04-22T06:29:16;17.20;99.90
5508;DHT22;2776;51.046;6.772;2023-04-22T06:31:42;18.30;99.90
5508;DHT22;2776;51.046;6.772;2023-04-22T06:34:10;18.90;99.90
5508;DHT22;2776;51.046;6.772;2023-04-22T06:36:37;19.50;99.90
5508;DHT22;2776;51.046;6.772;2023-04-22T06:39:04;19.80;99.90
5508;DHT22;2776;51.046;6.772;2023-04-22T06:41:31;19.70;99.90
5508;DHT22;2776;51.046;6.772;2023-04-22T06:43:58;19.60;99.90
5508;DHT22;2776;51.046;6.772;2023-04-22T06:46:25;20.00;99.90
5508;DHT22;2776;51.046;6.772;2023-04-22T06:48:52;20.30;99.90
5508;DHT22;2776;51.046;6.772;2023-04-22T06:51:20;20.70;99.90
5508;DHT22;2776;51.046;6.772;2023-04-22T06:53:46;20.10;99.90
5508;DHT22;2776;51.046;6.772;2023-04-22T06:56:13;20.20;99.90
5508;DHT22;2776;51.046;6.772;2023-04-22T06:58:40;20.20;99.90
5508;DHT22;2776;51.046;6.772;2023-04-22T07:01:07;20.50;99.90
5508;DHT22;2776;51.046;6.772;2023-04-22T07:03:33;20.30;99.90
5508;DHT22;2776;51.046;6.772;2023-04-22T07:06:00;19.70;99.90
5508;DHT22;2776;51.046;6.772;2023-04-22T07:08:28;19.40;99.90
5508;DHT22;2776;51.046;6.772;2023-04-22T07:10:55;18.90;99.90
5508;DHT22;2776;51.046;6.772;2023-04-22T07:13:23;18.50;99.90
5508;DHT22;2776;51.046;6.772;2023-04-22T07:15:51;18.50;99.90
5508;DHT22;2776;51.046;6.772;2023-04-22T07:18:18;18.60;99.90
5508;DHT22;2776;51.046;6.772;2023-04-22T07:20:45;18.70;99.90
5508;DHT22;2776;51.046;6.772;2023-04-22T07:23:12;18.80;99.90
5508;DHT22;2776;51.046;6.772;2023-04-22T07:25:40;19.30;99.90
5508;DHT22;2776;51.046;6.772;2023-04-22T07:28:07;19.70;99.90
5508;DHT22;2776;51.046;6.772;2023-04-22T07:30:33;20.20;99.90
5508;DHT22;2776;51.046;6.772;2023-04-22T07:33:00;20.60;99.90
5508;DHT22;2776;51.046;6.772;2023-04-22T07:35:27;20.90;99.90
5508;DHT22;2776;51.046;6.772;2023-04-22T07:37:54;21.30;99.90
5508;DHT22;2776;51.046;6.772;2023-04-22T07:40:21;21.60;98.90
5508;DHT22;2776;51.046;6.772;2023-04-22T07:42:49;21.70;98.40
5508;DHT22;2776;51.046;6.772;2023-04-22T07:45:16;21.80;95.40
5508;DHT22;2776;51.046;6.772;2023-04-22T07:47:44;21.80;95.90
5508;DHT22;2776;51.046;6.772;2023-04-22T07:50:10;22.10;93.20
5508;DHT22;2776;51.046;6.772;2023-04-22T07:52:37;22.10;93.90
5508;DHT22;2776;51.046;6.772;2023-04-22T07:55:05;21.30;92.40
5508;DHT22;2776;51.046;6.772;2023-04-22T07:57:32;21.30;95.60
5508;DHT22;2776;51.046;6.772;2023-04-22T08:00:05;21.10;93.20
5508;DHT22;2776;51.046;6.772;2023-04-22T08:02:32;21.00;94.30
5508;DHT22;2776;51.046;6.772;2023-04-22T08:04:59;20.90;93.40
5508;DHT22;2776;51.046;6.772;2023-04-22T08:07:25;21.10;92.30
5508;DHT22;2776;51.046;6.772;2023-04-22T08:09:52;21.30;93.70
5508;DHT22;2776;51.046;6.772;2023-04-22T08:12:21;21.50;92.80
5508;DHT22;2776;51.046;6.772;2023-04-22T08:14:47;21.10;91.00
5508;DHT22;2776;51.046;6.772;2023-04-22T08:17:15;20.80;92.10
5508;DHT22;2776;51.046;6.772;2023-04-22T08:19:46;20.80;92.60
5508;DHT22;2776;51.046;6.772;2023-04-22T08:22:13;20.80;94.00
5508;DHT22;2776;51.046;6.772;2023-04-22T08:24:40;20.90;92.50
5508;DHT22;2776;51.046;6.772;2023-04-22T08:27:06;21.10;92.40
5508;DHT22;2776;51.046;6.772;2023-04-22T08:29:33;20.80;94.90
5508;DHT22;2776;51.046;6.772;2023-04-22T08:32:00;20.90;93.10
5508;DHT22;2776;51.046;6.772;2023-04-22T08:34:28;21.00;93.60
5508;DHT22;2776;51.046;6.772;2023-04-22T08:36:55;20.70;92.20
5508;DHT22;2776;51.046;6.772;2023-04-22T08:39:21;20.40;95.00
5508;DHT22;2776;51.046;6.772;2023-04-22T08:41:49;20.20;95.00
5508;DHT22;2776;51.046;6.772;2023-04-22T08:44:17;20.30;95.10
5508;DHT22;2776;51.046;6.772;2023-04-22T08:46:44;20.80;94.50
5508;DHT22;2776;51.046;6.772;2023-04-22T08:49:14;21.40;94.60
5508;DHT22;2776;51.046;6.772;2023-04-22T08:51:43;21.80;93.40
5508;DHT22;2776;51.046;6.772;2023-04-22T08:54:11;22.20;90.50
5508;DHT22;2776;51.046;6.772;2023-04-22T08:56:40;22.40;91.10
5508;DHT22;2776;51.046;6.772;2023-04-22T08:59:08;22.10;87.50
5508;DHT22;2776;51.046;6.772;2023-04-22T09:01:37;22.40;89.40
5508;DHT22;2776;51.046;6.772;2023-04-22T09:04:04;22.80;90.30
5508;DHT22;2776;51.046;6.772;2023-04-22T09:06:32;22.70;86.70
5508;DHT22;2776;51.046;6.772;2023-04-22T09:09:00;22.80;82.20
5508;DHT22;2776;51.046;6.772;2023-04-22T09:11:27;22.70;81.10
5508;DHT22;2776;51.046;6.772;2023-04-22T09:13:54;22.60;83.70
5508;DHT22;2776;51.046;6.772;2023-04-22T09:16:21;22.40;82.20
5508;DHT22;2776;51.046;6.772;2023-04-22T09:18:49;22.60;84.40
5508;DHT22;2776;51.046;6.772;2023-04-22T09:21:16;22.70;83.60
5508;DHT22;2776;51.046;6.772;2023-04-22T09:23:45;22.80;83.70
5508;DHT22;2776;51.046;6.772;2023-04-22T09:26:14;23.20;80.50
5508;DHT22;2776;51.046;6.772;2023-04-22T09:28:51;23.20;80.90
5508;DHT22;2776;51.046;6.772;2023-04-22T09:31:19;23.10;79.80
5508;DHT22;2776;51.046;6.772;2023-04-22T09:33:47;23.00;75.80
5508;DHT22;2776;51.046;6.772;2023-04-22T09:36:15;22.70;77.00
5508;DHT22;2776;51.046;6.772;2023-04-22T09:38:51;23.00;75.60
5508;DHT22;2776;51.046;6.772;2023-04-22T09:41:25;22.80;79.10
5508;DHT22;2776;51.046;6.772;2023-04-22T09:43:54;22.40;80.40
5508;DHT22;2776;51.046;6.772;2023-04-22T09:46:21;22.50;80.90
5508;DHT22;2776;51.046;6.772;2023-04-22T09:48:49;22.10;77.40
5508;DHT22;2776;51.046;6.772;2023-04-22T09:51:16;22.20;78.70
5508;DHT22;2776;51.046;6.772;2023-04-22T09:53:43;22.10;79.50
5508;DHT22;2776;51.046;6.772;2023-04-22T09:56:10;22.00;81.70
5508;DHT22;2776;51.046;6.772;2023-04-22T09:58:39;22.00;76.80
5508;DHT22;2776;51.046;6.772;2023-04-22T10:01:05;21.70;77.70
5508;DHT22;2776;51.046;6.772;2023-04-22T10:03:32;21.60;76.40
5508;DHT22;2776;51.046;6.772;2023-04-22T10:05:59;21.50;83.00
5508;DHT22;2776;51.046;6.772;2023-04-22T10:08:26;21.40;80.10
5508;DHT22;2776;51.046;6.772;2023-04-22T10:10:54;21.20;81.60
5508;DHT22;2776;51.046;6.772;2023-04-22T10:13:21;20.60;83.00
5508;DHT22;2776;51.046;6.772;2023-04-22T10:15:51;20.50;90.00
5508;DHT22;2776;51.046;6.772;2023-04-22T10:18:22;20.40;90.10
5508;DHT22;2776;51.046;6.772;2023-04-22T10:20:50;20.20;89.50
5508;DHT22;2776;51.046;6.772;2023-04-22T10:23:20;20.00;89.50
5508;DHT22;2776;51.046;6.772;2023-04-22T10:25:47;19.90;89.20
5508;DHT22;2776;51.046;6.772;2023-04-22T10:28:16;19.80;88.90
5508;DHT22;2776;51.046;6.772;2023-04-22T10:30:43;19.70;89.70
5508;DHT22;2776;51.046;6.772;2023-04-22T10:33:36;19.60;90.50
5508;DHT22;2776;51.046;6.772;2023-04-22T10:36:07;19.50;92.40
5508;DHT22;2776;51.046;6.772;2023-04-22T10:38:35;19.50;95.20
5508;DHT22;2776;51.046;6.772;2023-04-22T10:41:02;19.60;94.30
5508;DHT22;2776;51.046;6.772;2023-04-22T10:43:42;19.90;93.80
5508;DHT22;2776;51.046;6.772;2023-04-22T10:49:17;20.50;94.00
5508;DHT22;2776;51.046;6.772;2023-04-22T10:51:47;20.60;91.20
5508;DHT22;2776;51.046;6.772;2023-04-22T10:57:19;20.90;91.70
5508;DHT22;2776;51.046;6.772;2023-04-22T10:59:50;20.90;91.10
5508;DHT22;2776;51.046;6.772;2023-04-22T11:02:18;20.90;91.50
5508;DHT22;2776;51.046;6.772;2023-04-22T11:04:47;21.00;91.50
5508;DHT22;2776;51.046;6.772;2023-04-22T11:07:14;20.70;90.30
5508;DHT22;2776;51.046;6.772;2023-04-22T11:09:43;20.50;91.50
5508;DHT22;2776;51.046;6.772;2023-04-22T11:12:41;20.50;93.80
5508;DHT22;2776;51.046;6.772;2023-04-22T11:15:09;20.60;92.10
5508;DHT22;2776;51.046;6.772;2023-04-22T11:17:37;20.70;92.40
5508;DHT22;2776;51.046;6.772;2023-04-22T11:20:07;20.80;92.00
5508;DHT22;2776;51.046;6.772;2023-04-22T11:22:34;20.80;93.80
5508;DHT22;2776;51.046;6.772;2023-04-22T11:25:02;20.90;94.10
5508;DHT22;2776;51.046;6.772;2023-04-22T11:27:29;21.30;94.10
5508;DHT22;2776;51.046;6.772;2023-04-22T11:30:00;21.50;93.30
5508;DHT22;2776;51.046;6.772;2023-04-22T11:32:27;21.60;91.80
5508;DHT22;2776;51.046;6.772;2023-04-22T11:34:54;21.70;90.90
5508;DHT22;2776;51.046;6.772;2023-04-22T11:37:23;21.60;91.10
5508;DHT22;2776;51.046;6.772;2023-04-22T11:39:50;21.50;93.10
5508;DHT22;2776;51.046;6.772;2023-04-22T11:42:19;21.80;92.00
5508;DHT22;2776;51.046;6.772;2023-04-22T11:44:47;21.60;90.00
5508;DHT22;2776;51.046;6.772;2023-04-22T11:47:13;21.80;88.10
5508;DHT22;2776;51.046;6.772;2023-04-22T11:49:40;21.90;88.00
5508;DHT22;2776;51.046;6.772;2023-04-22T11:52:07;21.90;88.00
5508;DHT22;2776;51.046;6.772;2023-04-22T11:54:36;21.60;90.60
5508;DHT22;2776;51.046;6.772;2023-04-22T11:57:05;21.60;89.70
5508;DHT22;2776;51.046;6.772;2023-04-22T11:59:32;21.70;91.70
5508;DHT22;2776;51.046;6.772;2023-04-22T12:01:59;21.40;89.80
5508;DHT22;2776;51.046;6.772;2023-04-22T12:04:35;21.30;90.70
5508;DHT22;2776;51.046;6.772;2023-04-22T12:07:02;21.40;91.50
5508;DHT22;2776;51.046;6.772;2023-04-22T12:09:29;21.20;90.50
5508;DHT22;2776;51.046;6.772;2023-04-22T12:11:57;21.20;92.20
5508;DHT22;2776;51.046;6.772;2023-04-22T12:14:30;21.20;92.30
5508;DHT22;2776;51.046;6.772;2023-04-22T12:16:57;21.30;91.80
5508;DHT22;2776;51.046;6.772;2023-04-22T12:19:24;21.30;91.90
5508;DHT22;2776;51.046;6.772;2023-04-22T12:21:54;21.20;91.00
5508;DHT22;2776;51.046;6.772;2023-04-22T12:24:26;21.40;93.40
5508;DHT22;2776;51.046;6.772;2023-04-22T12:26:53;21.50;92.30
5508;DHT22;2776;51.046;6.772;2023-04-22T12:29:29;21.80;93.20
5508;DHT22;2776;51.046;6.772;2023-04-22T12:31:56;21.60;91.50
5508;DHT22;2776;51.046;6.772;2023-04-22T12:34:23;21.30;90.90
5508;DHT22;2776;51.046;6.772;2023-04-22T12:36:50;21.30;92.90
5508;DHT22;2776;51.046;6.772;2023-04-22T12:39:16;21.10;91.30
5508;DHT22;2776;51.046;6.772;2023-04-22T12:41:44;21.10;93.60
5508;DHT22;2776;51.046;6.772;2023-04-22T12:44:15;21.20;92.30
5508;DHT22;2776;51.046;6.772;2023-04-22T12:46:43;21.30;94.50
5508;DHT22;2776;51.046;6.772;2023-04-22T12:49:10;21.20;92.20
5508;DHT22;2776;51.046;6.772;2023-04-22T12:51:38;21.10;92.40
5508;DHT22;2776;51.046;6.772;2023-04-22T12:54:05;21.00;92.80
5508;DHT22;2776;51.046;6.772;2023-04-22T12:56:32;21.10;93.40
5508;DHT22;2776;51.046;6.772;2023-04-22T12:58:59;20.90;93.40
5508;DHT22;2776;51.046;6.772;2023-04-22T13:01:27;20.80;93.80
5508;DHT22;2776;51.046;6.772;2023-04-22T13:03:55;20.70;95.00
5508;DHT22;2776;51.046;6.772;2023-04-22T13:06:22;20.70;96.30
5508;DHT22;2776;51.046;6.772;2023-04-22T13:08:49;20.40;96.60
5508;DHT22;2776;51.046;6.772;2023-04-22T13:11:15;20.20;99.90
5508;DHT22;2776;51.046;6.772;2023-04-22T13:13:42;19.60;99.90
5508;DHT22;2776;51.046;6.772;2023-04-22T13:16:09;19.30;99.90
5508;DHT22;2776;51.046;6.772;2023-04-22T13:18:36;19.20;99.90
5508;DHT22;2776;51.046;6.772;2023-04-22T13:21:05;19.20;99.90
5508;DHT22;2776;51.046;6.772;2023-04-22T13:23:31;19.10;99.90
5508;DHT22;2776;51.046;6.772;2023-04-22T13:25:59;19.00;99.90
5508;DHT22;2776;51.046;6.772;2023-04-22T13:28:26;19.10;99.90
5508;DHT22;2776;51.046;6.772;2023-04-22T13:30:53;19.10;99.90
5508;DHT22;2776;51.046;6.772;2023-04-22T13:33:20;19.20;99.90
5508;DHT22;2776;51.046;6.772;2023-04-22T13:35:47;19.30;99.90
5508;DHT22;2776;51.046;6.772;2023-04-22T13:38:15;19.30;99.90
5508;DHT22;2776;51.046;6.772;2023-04-22T13:40:42;19.00;99.90
5508;DHT22;2776;51.046;6.772;2023-04-22T13:43:08;19.10;99.90
5508;DHT22;2776;51.046;6.772;2023-04-22T13:45:35;19.10;99.90
5508;DHT22;2776;51.046;6.772;2023-04-22T13:48:02;19.20;99.90
5508;DHT22;2776;51.046;6.772;2023-04-22T13:50:29;19.30;99.90
5508;DHT22;2776;51.046;6.772;2023-04-22T13:52:55;19.40;99.90
5508;DHT22;2776;51.046;6.772;2023-04-22T13:55:23;19.50;99.90
5508;DHT22;2776;51.046;6.772;2023-04-22T13:57:51;19.40;99.90
5508;DHT22;2776;51.046;6.772;2023-04-22T14:00:17;19.30;99.90
5508;DHT22;2776;51.046;6.772;2023-04-22T14:02:45;19.30;99.90
5508;DHT22;2776;51.046;6.772;2023-04-22T14:05:11;19.30;99.90
5508;DHT22;2776;51.046;6.772;2023-04-22T14:07:38;19.30;99.90
5508;DHT22;2776;51.046;6.772;2023-04-22T14:10:05;19.30;99.90
5508;DHT22;2776;51.046;6.772;2023-04-22T14:12:37;19.10;99.90
5508;DHT22;2776;51.046;6.772;2023-04-22T14:15:05;19.10;99.90
5508;DHT22;2776;51.046;6.772;2023-04-22T14:17:35;19.00;99.90
5508;DHT22;2776;51.046;6.772;2023-04-22T14:20:02;19.00;99.90
5508;DHT22;2776;51.046;6.772;2023-04-22T14:22:30;18.90;99.90
5508;DHT22;2776;51.046;6.772;2023-04-22T14:24:56;19.00;99.90
5508;DHT22;2776;51.046;6.772;2023-04-22T14:27:24;19.10;99.90
5508;DHT22;2776;51.046;6.772;2023-04-22T14:29:52;19.00;99.90
5508;DHT22;2776;51.046;6.772;2023-04-22T14:32:19;19.00;99.90
5508;DHT22;2776;51.046;6.772;2023-04-22T14:34:46;18.80;99.90
5508;DHT22;2776;51.046;6.772;2023-04-22T14:37:13;18.60;99.90
5508;DHT22;2776;51.046;6.772;2023-04-22T14:39:40;18.60;99.90
5508;DHT22;2776;51.046;6.772;2023-04-22T14:42:06;18.50;99.90
5508;DHT22;2776;51.046;6.772;2023-04-22T14:44:33;18.40;99.90
5508;DHT22;2776;51.046;6.772;2023-04-22T14:47:01;18.40;99.90
5508;DHT22;2776;51.046;6.772;2023-04-22T14:49:29;18.30;99.90
5508;DHT22;2776;51.046;6.772;2023-04-22T14:51:56;18.30;99.90
5508;DHT22;2776;51.046;6.772;2023-04-22T14:54:25;18.30;99.90
5508;DHT22;2776;51.046;6.772;2023-04-22T14:56:53;18.10;99.90
5508;DHT22;2776;51.046;6.772;2023-04-22T14:59:20;18.10;99.90
5508;DHT22;2776;51.046;6.772;2023-04-22T15:01:47;18.10;99.90
5508;DHT22;2776;51.046;6.772;2023-04-22T15:04:16;18.10;99.90
5508;DHT22;2776;51.046;6.772;2023-04-22T15:06:43;17.80;99.90
5508;DHT22;2776;51.046;6.772;2023-04-22T15:09:10;17.70;99.90
5508;DHT22;2776;51.046;6.772;2023-04-22T15:11:37;17.70;99.90
5508;DHT22;2776;51.046;6.772;2023-04-22T15:14:04;17.60;99.90
5508;DHT22;2776;51.046;6.772;2023-04-22T15:16:30;17.40;99.90
5508;DHT22;2776;51.046;6.772;2023-04-22T15:18:57;17.40;99.90
5508;DHT22;2776;51.046;6.772;2023-04-22T15:21:25;17.30;99.90
5508;DHT22;2776;51.046;6.772;2023-04-22T15:23:52;17.40;99.90
5508;DHT22;2776;51.046;6.772;2023-04-22T15:26:19;17.40;99.90
5508;DHT22;2776;51.046;6.772;2023-04-22T15:28:45;17.40;99.90
5508;DHT22;2776;51.046;6.772;2023-04-22T15:31:15;17.40;99.90
5508;DHT22;2776;51.046;6.772;2023-04-22T15:33:42;17.60;99.90
5508;DHT22;2776;51.046;6.772;2023-04-22T15:36:09;17.80;99.90
5508;DHT22;2776;51.046;6.772;2023-04-22T15:38:37;17.90;99.90
5508;DHT22;2776;51.046;6.772;2023-04-22T15:41:04;17.90;99.90
5508;DHT22;2776;51.046;6.772;2023-04-22T15:43:31;18.00;99.90
5508;DHT22;2776;51.046;6.772;2023-04-22T15:45:58;18.00;99.90
5508;DHT22;2776;51.046;6.772;2023-04-22T15:48:25;17.80;99.90
5508;DHT22;2776;51.046;6.772;2023-04-22T15:50:52;17.70;99.90
5508;DHT22;2776;51.046;6.772;2023-04-22T15:53:18;17.60;99.90
5508;DHT22;2776;51.046;6.772;2023-04-22T15:55:47;17.60;99.90
5508;DHT22;2776;51.046;6.772;2023-04-22T15:58:14;17.50;99.90
5508;DHT22;2776;51.046;6.772;2023-04-22T16:00:40;17.40;99.90
5508;DHT22;2776;51.046;6.772;2023-04-22T16:03:07;17.30;99.90
5508;DHT22;2776;51.046;6.772;2023-04-22T16:05:36;17.20;99.90
5508;DHT22;2776;51.046;6.772;2023-04-22T16:08:03;17.10;99.90
5508;DHT22;2776;51.046;6.772;2023-04-22T16:10:30;17.00;99.90
5508;DHT22;2776;51.046;6.772;2023-04-22T16:12:58;16.90;99.90